Montrose, CO

10:04 AM MDT on August 27, 2014 (GMT -0600)
Gunnison County | Change Station
CLOSE
Current Station
Airport
Location: Gunnison,
Elevation: 7674 ft
Nearby Weather Stations
Active Advisory: Special Statement Active Notice: Public Information Statement

Elev 7674 ft 38.53 °N, 106.93 °W | Updated 9 minutes ago

Clear
Clear
55 °F
Feels Like 55 °F
N
0
Wind Variable Wind from North

Today
High -- | Low -- °F
--% Chance of Precip.
Yesterday
High -- | Low -- °F
Precip. -- in
6:36 AM 7:48 PM
Waxing Crescent, 4% visible
Pressure 30.42 in
Visibility 10.0 miles
Clouds Clear
Dew Point 46 °F
Humidity 72%
Rainfall 0.61 in
Snow Depth Not available.
UV 5 out of 12
Pollen 6.00 out of 12
Air Quality Not available.
Flu Activity Not available.
METAR KGUC 271555Z AUTO 00000KT 10SM CLR 13/08 A3042 RMK AO1

More Conditions Fewer Conditions

Pressure 30.42 in
Visibility 10.0 miles
Clouds Clear
Dew Point 46 °F
Humidity 72%
Rainfall 0.61 in
Snow Depth Not available.
UV 5 out of 12
Pollen 6.00 out of 12
Air Quality Not available.
Flu Activity Not available.
METAR KGUC 271555Z AUTO 00000KT 10SM CLR 13/08 A3042 RMK AO1

More Conditions Fewer Conditions

10-Day Weather Forecast

Almanac

Astronomy

Aug. 27, 2014 Rise Set
Actual Time 6:36 AM MDT 7:48 PM MDT
Civil Twilight 6:09 AM MDT 8:15 PM MDT
Nautical Twilight 5:36 AM MDT 8:48 PM MDT
Astronomical Twilight 5:02 AM MDT 9:22 PM MDT
Moon 8:33 AM MDT 8:44 PM MDT
Length of Visible Light 14h 06m
Length of Day
13h 12m
Tomorrow will be 2m 21s shorter.
Waxing Crescent, 4% of the Moon is Illuminated
Today
Waxing Crescent
Sep 2
First Quarter
Sep 8
Full
Sep 15
Last Quarter
Sep 24
New

Today's Extremes

State Highs State Lows

Community

WunderPhotos

Upload Photos

1,747,715 photos uploaded!

Nearby

Snow Depth

Station Depth Elevation
Columbine Pass 0 in 9400 ft
Idarado 0 in 9800 ft
Red Mountain Pass 0 in 11150 ft
Lone Cone 1 in 9600 ft
Mineral Creek 0 in 10040 ft

Earthquake Activity

City Distance Mag. Time & Date
No recent earthquake activity has been reported nearby.
Minimum magnitude displayed is 2.5.

Coastal Water Temperatures

Place Temperature
No Stations Reporting

Nearby Weather Stations